Time;durP1;ratioP1;P1;durP2;ratioP2;P2;SDS_P1;SDS_P2;PMS_P1;PMS_P2;Temp;Humidity;BMP_temperature;BMP_pressure;BME280_temperature;BME280_humidity;BME280_pressure;Samples;Min_cycle;Max_cycle;Signal;HPM_P1;HPM_P2
2022/10/03 00:01:38;;;;;;;4.30;3.90;;;10.70;99.90;;;;;;4928434;28;20464;-91
2022/10/03 00:04:36;;;;;;;5.23;3.93;;;10.60;99.90;;;;;;4932781;28;20457;-91
2022/10/03 00:07:31;;;;;;;7.23;4.17;;;10.60;99.90;;;;;;4935012;28;20455;-91
2022/10/03 00:10:15;;;;;;;5.03;4.57;;;10.60;99.90;;;;;;4910768;28;20451;-92
2022/10/03 00:13:11;;;;;;;5.17;4.70;;;10.60;99.90;;;;;;4935878;28;20566;-91
2022/10/03 00:15:52;;;;;;;6.10;5.57;;;10.60;99.90;;;;;;4932589;28;20430;-91
2022/10/03 00:18:18;;;;;;;5.77;5.07;;;10.60;99.90;;;;;;4935144;28;20993;-90
2022/10/03 00:21:00;;;;;;;5.10;4.70;;;10.50;99.90;;;;;;4931600;28;20840;-91
2022/10/03 00:23:46;;;;;;;5.80;4.60;;;10.50;99.90;;;;;;4933790;28;20205;-90
2022/10/03 00:26:29;;;;;;;5.73;5.20;;;10.50;99.90;;;;;;4941476;28;20490;-91
2022/10/03 00:28:57;;;;;;;6.60;5.27;;;10.40;99.90;;;;;;4954976;28;20923;-90
2022/10/03 00:31:35;;;;;;;6.20;5.27;;;10.40;99.90;;;;;;4953751;28;20938;-91
2022/10/03 00:34:20;;;;;;;4.83;4.40;;;10.30;99.90;;;;;;4953862;28;20430;-89
2022/10/03 00:37:04;;;;;;;6.30;3.40;;;10.30;99.90;;;;;;4939005;28;20481;-91
2022/10/03 00:39:37;;;;;;;4.23;3.17;;;10.20;99.90;;;;;;4940234;28;20438;-90
2022/10/03 00:42:24;;;;;;;2.80;2.60;;;10.20;99.90;;;;;;4955036;28;20529;-91
2022/10/03 00:45:27;;;;;;;3.73;2.67;;;10.20;99.90;;;;;;4935264;28;20465;-92
2022/10/03 00:48:30;;;;;;;2.87;2.67;;;10.30;99.90;;;;;;4937924;28;20488;-92
2022/10/03 00:51:16;;;;;;;4.10;3.10;;;10.50;99.90;;;;;;4951912;28;20429;-90
2022/10/03 00:53:41;;;;;;;4.00;3.40;;;10.60;99.90;;;;;;4954668;28;20469;-92
2022/10/03 00:56:24;;;;;;;4.07;3.67;;;10.60;99.90;;;;;;4942719;28;21499;-91
2022/10/03 00:59:25;;;;;;;5.20;4.70;;;10.70;99.90;;;;;;4955587;28;21456;-92
2022/10/03 01:01:51;;;;;;;5.23;4.57;;;10.80;99.90;;;;;;4943547;28;20825;-92
2022/10/03 01:04:42;;;;;;;5.40;4.90;;;10.80;99.90;;;;;;4948941;28;20446;-92
2022/10/03 01:07:08;;;;;;;6.27;4.93;;;10.80;99.90;;;;;;4942364;28;20202;-92
2022/10/03 01:10:30;;;;;;;5.07;4.57;;;10.90;99.90;;;;;;4945289;28;20458;-91
2022/10/03 01:13:07;;;;;;;4.60;4.13;;;10.80;99.90;;;;;;4855778;29;20232;-92
2022/10/03 01:16:07;;;;;;;5.20;4.70;;;10.80;99.90;;;;;;4865619;29;20966;-91
2022/10/03 01:18:44;;;;;;;4.30;3.90;;;10.80;99.90;;;;;;4931462;28;20454;-90
2022/10/03 01:21:16;;;;;;;6.50;4.60;;;10.80;99.90;;;;;;4933786;28;20458;-90
2022/10/03 01:23:56;;;;;;;4.40;4.10;;;10.70;99.90;;;;;;4938562;28;20446;-90
2022/10/03 01:26:37;;;;;;;6.20;4.80;;;10.60;99.90;;;;;;4957097;28;20577;-90
2022/10/03 01:32:20;;;;;;;5.63;5.13;;;10.60;99.90;;;;;;4941391;28;20500;-90
2022/10/03 01:35:05;;;;;;;6.00;4.93;;;10.70;99.90;;;;;;4894451;28;20445;-90
2022/10/03 01:37:56;;;;;;;6.30;5.73;;;10.90;99.90;;;;;;4942763;28;24438;-90
2022/10/03 01:40:32;;;;;;;6.20;5.60;;;10.90;99.90;;;;;;4940924;28;20529;-90
2022/10/03 01:43:21;;;;;;;5.80;5.30;;;11.00;99.90;;;;;;4943102;28;22515;-91
2022/10/03 01:45:47;;;;;;;5.90;5.30;;;11.10;99.90;;;;;;4937386;28;20510;-91
2022/10/03 01:48:21;;;;;;;5.43;4.93;;;11.10;99.90;;;;;;4941678;28;21070;-90
2022/10/03 01:50:54;;;;;;;6.40;5.50;;;11.10;99.90;;;;;;4940918;28;20190;-91
2022/10/03 01:53:48;;;;;;;5.73;5.23;;;11.10;99.90;;;;;;4939670;28;20478;-91
2022/10/03 01:56:17;;;;;;;5.67;5.17;;;11.00;99.90;;;;;;4939698;28;21209;-91
2022/10/03 01:58:57;;;;;;;5.13;4.73;;;11.00;99.90;;;;;;4940300;28;20496;-91
2022/10/03 02:01:41;;;;;;;5.33;4.90;;;11.00;99.90;;;;;;4939631;28;20453;-90
2022/10/03 02:04:42;;;;;;;8.53;4.90;;;10.80;99.90;;;;;;4938761;28;20437;-91
2022/10/03 02:07:40;;;;;;;5.90;5.30;;;10.80;99.90;;;;;;4926207;28;20474;-91
2022/10/03 02:10:23;;;;;;;5.37;4.97;;;10.70;99.90;;;;;;4939413;28;20535;-89
2022/10/03 02:13:18;;;;;;;5.80;5.20;;;10.70;99.90;;;;;;4944886;28;20457;-90
2022/10/03 02:16:00;;;;;;;6.27;5.67;;;10.60;99.90;;;;;;4942446;28;22023;-90
2022/10/03 02:18:46;;;;;;;5.97;5.37;;;10.70;99.90;;;;;;4933275;28;20477;-89
2022/10/03 02:21:20;;;;;;;7.53;5.40;;;10.60;99.90;;;;;;4937117;28;20500;-89
2022/10/03 02:23:47;;;;;;;5.83;5.00;;;10.50;99.90;;;;;;4934983;28;20468;-90
2022/10/03 02:26:31;;;;;;;5.23;4.73;;;10.50;99.90;;;;;;4937117;28;20482;-89
2022/10/03 02:29:12;;;;;;;5.47;4.90;;;10.50;99.90;;;;;;4937873;28;20543;-90
2022/10/03 02:32:15;;;;;;;7.90;5.40;;;10.50;99.90;;;;;;4947529;28;20463;-90
2022/10/03 02:35:07;;;;;;;6.27;5.03;;;10.50;99.90;;;;;;4948959;28;20553;-90
2022/10/03 02:38:04;;;;;;;7.13;6.30;;;10.50;99.90;;;;;;4960711;28;20450;-90
2022/10/03 02:40:55;;;;;;;5.20;4.73;;;10.50;99.90;;;;;;4942680;28;20502;-89
2022/10/03 02:43:46;;;;;;;5.43;4.87;;;10.50;99.90;;;;;;4947900;28;20611;-90
2022/10/03 02:46:15;;;;;;;5.93;5.33;;;10.60;99.90;;;;;;4961191;28;20485;-90
2022/10/03 02:49:05;;;;;;;5.73;5.23;;;10.70;99.90;;;;;;4943396;28;20450;-89
2022/10/03 02:51:31;;;;;;;6.13;5.50;;;10.70;99.90;;;;;;4959570;28;20462;-89
2022/10/03 02:54:31;;;;;;;6.93;6.33;;;10.70;99.90;;;;;;4945848;28;20887;-89
2022/10/03 02:57:14;;;;;;;10.40;6.60;;;10.70;99.90;;;;;;4945654;28;20187;-89
2022/10/03 03:00:00;;;;;;;7.10;6.30;;;10.70;99.90;;;;;;4944394;28;20497;-89
2022/10/03 03:03:16;;;;;;;5.13;4.70;;;10.80;99.90;;;;;;4937646;28;20488;-89
2022/10/03 03:06:16;;;;;;;4.87;4.47;;;10.80;99.90;;;;;;4943015;28;20477;-91
2022/10/03 03:08:57;;;;;;;4.77;4.37;;;10.80;99.90;;;;;;4943074;28;20447;-91
2022/10/03 03:11:41;;;;;;;5.20;4.80;;;10.70;99.90;;;;;;4947252;28;20457;-92
2022/10/03 03:14:46;;;;;;;5.67;5.17;;;10.60;99.90;;;;;;4947027;28;20611;-90
2022/10/03 03:17:42;;;;;;;6.23;5.63;;;10.60;99.90;;;;;;4943013;28;21700;-90
2022/10/03 03:20:40;;;;;;;7.40;6.60;;;10.60;99.90;;;;;;4941463;28;20449;-91
2022/10/03 03:23:27;;;;;;;9.90;6.40;;;10.40;99.90;;;;;;4944041;28;20443;-91
2022/10/03 03:26:10;;;;;;;6.97;6.30;;;10.30;99.90;;;;;;4960874;28;20506;-90
2022/10/03 03:29:02;;;;;;;6.93;5.87;;;10.30;99.90;;;;;;4958146;28;20464;-90
2022/10/03 03:31:33;;;;;;;8.20;6.20;;;10.20;99.90;;;;;;4935599;28;20458;-90
2022/10/03 03:34:14;;;;;;;7.33;6.30;;;10.10;99.90;;;;;;4930305;28;20450;-89
2022/10/03 03:36:53;;;;;;;7.23;6.47;;;10.00;99.90;;;;;;4931091;28;20454;-89
2022/10/03 03:39:54;;;;;;;7.63;6.83;;;9.80;99.90;;;;;;4933782;28;20726;-90
2022/10/03 03:42:45;;;;;;;8.03;7.33;;;9.80;99.90;;;;;;4938720;28;20443;-91
2022/10/03 03:45:42;;;;;;;7.10;6.40;;;9.80;99.90;;;;;;4936300;28;20485;-91
2022/10/03 03:48:38;;;;;;;6.57;5.97;;;9.70;99.90;;;;;;4936911;28;20529;-89
2022/10/03 03:51:25;;;;;;;6.50;5.70;;;9.70;99.90;;;;;;4922866;28;21032;-90
2022/10/03 03:54:04;;;;;;;6.63;5.90;;;9.70;99.90;;;;;;4933432;28;20450;-89
2022/10/03 03:57:14;;;;;;;7.30;4.70;;;9.70;99.90;;;;;;4931531;28;20442;-90
2022/10/03 04:00:11;;;;;;;6.80;6.10;;;9.60;99.90;;;;;;4847039;28;20847;-90
2022/10/03 04:03:13;;;;;;;7.33;6.03;;;9.60;99.90;;;;;;4935518;28;20515;-90
2022/10/03 04:06:08;;;;;;;5.80;5.00;;;9.60;99.90;;;;;;4937749;28;20474;-91
2022/10/03 04:09:10;;;;;;;5.63;4.97;;;9.60;99.90;;;;;;4933116;28;20473;-91
2022/10/03 04:12:08;;;;;;;5.70;5.20;;;9.60;99.90;;;;;;4948389;28;21347;-91
2022/10/03 04:15:29;;;;;;;6.23;5.73;;;9.60;99.90;;;;;;4932723;28;20544;-90
2022/10/03 04:21:39;;;;;;;7.77;6.97;;;9.50;99.90;;;;;;4929049;28;20681;-91
2022/10/03 04:24:45;;;;;;;9.47;6.90;;;9.50;99.90;;;;;;4931322;28;21010;-91
2022/10/03 04:27:23;;;;;;;6.50;5.90;;;9.60;99.90;;;;;;4934688;28;20458;-91
2022/10/03 04:30:10;;;;;;;9.60;7.40;;;9.60;99.90;;;;;;4930039;28;20441;-91
2022/10/03 04:33:11;;;;;;;5.90;5.40;;;9.70;99.90;;;;;;4935489;28;20529;-92
2022/10/03 04:36:08;;;;;;;9.00;7.00;;;9.80;99.90;;;;;;4911842;28;21576;-92
2022/10/03 04:38:57;;;;;;;11.23;6.93;;;9.80;99.90;;;;;;4936976;28;20442;-93
2022/10/03 04:41:41;;;;;;;7.40;6.30;;;9.90;99.90;;;;;;4930707;28;20569;-92
2022/10/03 04:44:25;;;;;;;8.73;6.57;;;9.90;99.90;;;;;;4945977;28;20441;-91
2022/10/03 04:46:55;;;;;;;10.60;7.67;;;9.90;99.90;;;;;;4928511;28;20481;-92
2022/10/03 04:49:44;;;;;;;7.33;6.60;;;10.00;99.90;;;;;;4931109;28;20514;-90
2022/10/03 04:52:41;;;;;;;8.43;7.20;;;10.10;99.90;;;;;;4931321;28;20564;-91
2022/10/03 04:55:39;;;;;;;8.10;7.10;;;10.10;99.90;;;;;;4933967;28;20451;-91
2022/10/03 04:58:31;;;;;;;7.27;5.93;;;10.00;99.90;;;;;;4928374;28;20442;-92
2022/10/03 05:01:13;;;;;;;6.83;6.23;;;10.00;99.90;;;;;;4931725;28;20488;-92
2022/10/03 05:03:42;;;;;;;7.77;6.97;;;10.00;99.90;;;;;;4935583;28;20482;-91
2022/10/03 05:06:21;;;;;;;8.37;6.40;;;10.00;99.90;;;;;;4931102;28;20486;-92
2022/10/03 05:09:00;;;;;;;7.20;6.50;;;10.00;99.90;;;;;;4935308;28;20994;-92
2022/10/03 05:11:46;;;;;;;6.60;6.00;;;10.10;99.90;;;;;;4935633;28;20485;-92
2022/10/03 05:14:48;;;;;;;7.10;6.37;;;10.00;99.90;;;;;;4939418;28;20449;-91
2022/10/03 05:17:25;;;;;;;8.17;6.27;;;9.90;99.90;;;;;;4942231;28;20580;-92
2022/10/03 05:20:04;;;;;;;7.43;6.43;;;9.90;99.90;;;;;;4959047;28;20438;-91
2022/10/03 05:22:57;;;;;;;6.80;6.20;;;10.00;99.90;;;;;;4933776;28;20539;-92
2022/10/03 05:25:28;;;;;;;7.17;6.50;;;10.20;99.90;;;;;;4938205;28;21020;-89
2022/10/03 05:28:10;;;;;;;6.63;6.00;;;10.30;99.90;;;;;;4938579;28;20548;-92
2022/10/03 05:31:27;;;;;;;6.60;6.00;;;10.40;99.90;;;;;;4935671;28;20486;-91
2022/10/03 05:34:17;;;;;;;8.43;7.63;;;10.50;99.90;;;;;;4915418;28;20537;-92
2022/10/03 05:37:15;;;;;;;8.47;7.13;;;10.40;99.90;;;;;;4936037;28;20438;-93
2022/10/03 05:40:01;;;;;;;7.90;7.20;;;10.40;99.90;;;;;;4936057;28;20450;-93
2022/10/03 05:42:41;;;;;;;7.30;6.60;;;10.50;99.90;;;;;;4938784;28;20450;-93
2022/10/03 05:45:35;;;;;;;8.50;7.00;;;10.50;99.90;;;;;;4941270;28;20463;-92
2022/10/03 05:48:39;;;;;;;8.23;7.43;;;10.50;99.90;;;;;;4932735;28;20454;-92
2022/10/03 05:51:38;;;;;;;9.23;7.10;;;10.50;99.90;;;;;;4934865;28;20873;-90
2022/10/03 05:54:22;;;;;;;8.93;7.00;;;10.60;99.90;;;;;;4934606;28;20493;-92
2022/10/03 05:56:59;;;;;;;8.53;7.73;;;10.60;99.90;;;;;;4934335;28;21215;-91
2022/10/03 05:59:43;;;;;;;8.50;6.80;;;10.70;99.90;;;;;;4939356;28;20442;-92
2022/10/03 06:02:37;;;;;;;7.97;7.07;;;10.70;99.90;;;;;;4940375;28;20500;-93
2022/10/03 06:05:26;;;;;;;8.07;7.33;;;10.70;99.90;;;;;;4953430;28;20529;-92
2022/10/03 06:08:19;;;;;;;8.10;7.30;;;10.70;99.90;;;;;;4937801;28;20478;-92
2022/10/03 06:10:52;;;;;;;10.90;9.10;;;10.70;99.90;;;;;;4939467;28;20454;-90
2022/10/03 06:13:43;;;;;;;11.20;9.53;;;10.80;99.90;;;;;;4937273;28;20496;-92
2022/10/03 06:16:52;;;;;;;11.50;9.03;;;10.70;99.90;;;;;;4941057;28;20525;-92
2022/10/03 06:19:45;;;;;;;12.60;9.97;;;10.70;99.90;;;;;;4935847;28;20454;-92
2022/10/03 06:22:44;;;;;;;13.57;10.90;;;10.80;99.90;;;;;;4957627;28;20437;-93
2022/10/03 06:25:38;;;;;;;13.47;11.00;;;10.90;99.90;;;;;;4933915;28;20484;-92
2022/10/03 06:28:34;;;;;;;15.80;12.30;;;11.00;99.90;;;;;;4935162;28;20446;-92
2022/10/03 06:31:54;;;;;;;15.60;13.90;;;11.00;99.90;;;;;;4935774;28;20434;-91
2022/10/03 06:34:31;;;;;;;15.93;11.93;;;11.10;99.90;;;;;;4842834;29;21131;-91
2022/10/03 06:37:02;;;;;;;17.13;11.87;;;11.10;99.90;;;;;;4935326;28;20438;-92
2022/10/03 06:39:53;;;;;;;13.90;11.60;;;11.20;99.90;;;;;;4931778;28;20520;-91
2022/10/03 06:42:29;;;;;;;15.63;12.57;;;11.20;99.90;;;;;;4933687;28;20872;-93
2022/10/03 06:45:16;;;;;;;14.53;12.30;;;11.20;99.90;;;;;;4932028;28;20465;-92
2022/10/03 06:47:51;;;;;;;16.53;12.60;;;11.30;99.90;;;;;;4954489;28;20506;-92
2022/10/03 06:50:50;;;;;;;19.00;13.27;;;11.30;99.90;;;;;;4932486;28;20826;-91
2022/10/03 06:53:34;;;;;;;21.33;13.10;;;11.40;99.90;;;;;;4949193;28;21273;-86
2022/10/03 06:56:30;;;;;;;18.87;12.00;;;11.30;99.90;;;;;;4934015;28;20454;-87
2022/10/03 06:59:05;;;;;;;17.33;12.93;;;11.40;99.90;;;;;;4931702;28;20532;-87
2022/10/03 07:01:52;;;;;;;19.07;13.60;;;11.30;99.90;;;;;;4937510;28;20449;-89
2022/10/03 07:04:42;;;;;;;26.57;14.53;;;11.40;99.90;;;;;;4931413;28;20476;-91
2022/10/03 07:07:38;;;;;;;21.27;13.93;;;11.40;99.90;;;;;;4932801;28;20524;-90
2022/10/03 07:10:34;;;;;;;28.87;15.33;;;11.40;99.90;;;;;;4937411;28;20446;-90
2022/10/03 07:13:27;;;;;;;20.30;13.87;;;11.50;99.90;;;;;;4940343;28;20442;-91
2022/10/03 07:16:31;;;;;;;25.23;14.53;;;11.50;99.90;;;;;;4942875;28;20445;-90
2022/10/03 07:19:28;;;;;;;25.33;15.77;;;11.60;99.90;;;;;;4933900;28;20744;-90
2022/10/03 07:22:13;;;;;;;20.53;13.93;;;11.60;99.90;;;;;;4939570;28;20443;-91
2022/10/03 07:25:04;;;;;;;29.20;14.57;;;11.60;99.90;;;;;;4935780;28;20960;-90
2022/10/03 07:27:43;;;;;;;20.53;14.40;;;11.70;99.90;;;;;;4937817;28;20768;-90
2022/10/03 07:30:17;;;;;;;21.63;14.23;;;11.80;99.90;;;;;;4947536;28;20451;-91
2022/10/03 07:33:20;;;;;;;27.17;14.67;;;12.00;99.90;;;;;;4938491;28;20441;-90
2022/10/03 07:39:42;;;;;;;17.43;13.07;;;12.20;99.90;;;;;;4942846;28;20472;-91
2022/10/03 07:42:31;;;;;;;20.00;14.07;;;12.40;99.90;;;;;;4934827;28;20438;-91
2022/10/03 07:45:33;;;;;;;14.53;11.80;;;12.60;99.90;;;;;;4948879;28;20453;-89
2022/10/03 07:48:17;;;;;;;14.10;10.50;;;12.50;99.90;;;;;;4937115;28;20503;-89
2022/10/03 07:51:07;;;;;;;14.30;10.70;;;12.40;99.90;;;;;;4931910;28;20449;-90
2022/10/03 07:54:10;;;;;;;19.10;11.50;;;12.30;99.90;;;;;;4939641;28;21114;-89
2022/10/03 07:56:54;;;;;;;20.13;11.70;;;12.40;99.90;;;;;;4955829;28;20441;-91
2022/10/03 08:00:18;;;;;;;15.23;11.67;;;12.60;99.90;;;;;;4933720;28;20477;-90
2022/10/03 08:03:05;;;;;;;13.77;11.10;;;12.90;99.90;;;;;;4848367;29;20453;-90
2022/10/03 08:05:33;;;;;;;17.57;12.20;;;12.80;99.90;;;;;;4932926;28;21024;-89
2022/10/03 08:08:18;;;;;;;13.77;11.93;;;12.60;99.90;;;;;;4953882;28;20545;-89
2022/10/03 08:11:05;;;;;;;17.10;12.27;;;12.40;99.90;;;;;;4938774;28;20439;-89
2022/10/03 08:14:03;;;;;;;15.27;11.80;;;12.50;99.90;;;;;;4942014;28;20529;-89
2022/10/03 08:16:57;;;;;;;17.33;11.93;;;12.50;99.90;;;;;;4944639;28;20454;-90
2022/10/03 08:19:47;;;;;;;20.70;13.03;;;12.40;99.90;;;;;;4948722;28;20463;-90
2022/10/03 08:22:52;;;;;;;19.53;13.00;;;12.30;99.90;;;;;;4953860;28;20525;-89
2022/10/03 08:25:46;;;;;;;18.73;13.50;;;12.30;99.90;;;;;;4935586;28;20482;-90
2022/10/03 08:28:17;;;;;;;23.73;14.47;;;12.20;99.90;;;;;;4934003;28;20943;-88
2022/10/03 08:31:01;;;;;;;20.20;14.37;;;12.20;99.90;;;;;;4945044;28;20454;-89
2022/10/03 08:33:49;;;;;;;21.70;13.87;;;12.20;99.90;;;;;;4949509;28;20471;-88
2022/10/03 08:36:23;;;;;;;18.60;14.90;;;12.30;99.90;;;;;;4940749;28;20528;-87
2022/10/03 08:39:17;;;;;;;19.63;13.23;;;12.40;99.90;;;;;;4941819;28;20856;-88
2022/10/03 08:42:10;;;;;;;16.60;11.93;;;12.50;99.90;;;;;;4944297;28;20454;-88
2022/10/03 08:45:05;;;;;;;20.97;12.63;;;12.60;99.90;;;;;;4960453;28;20476;-88
2022/10/03 08:47:52;;;;;;;16.90;13.40;;;12.60;99.90;;;;;;4951406;28;20453;-86
2022/10/03 08:50:29;;;;;;;18.57;13.00;;;12.70;99.90;;;;;;4944927;28;20468;-85
2022/10/03 08:52:55;;;;;;;18.57;12.90;;;12.90;99.90;;;;;;4947000;28;20525;-93
2022/10/03 08:55:33;;;;;;;17.60;12.77;;;13.10;99.90;;;;;;4954923;28;20613;-92
2022/10/03 08:58:23;;;;;;;16.77;11.37;;;13.40;99.90;;;;;;4960517;28;20433;-94
2022/10/03 09:01:25;;;;;;;15.53;11.80;;;13.20;99.90;;;;;;4947194;28;20979;-94
2022/10/03 09:04:15;;;;;;;15.87;12.27;;;13.30;99.90;;;;;;5125326;23;20520;-92
2022/10/03 09:06:52;;;;;;;17.57;12.30;;;13.50;99.90;;;;;;4979332;28;20481;-94
2022/10/03 09:09:35;;;;;;;14.10;12.60;;;13.80;99.90;;;;;;4956145;28;20421;-96
2022/10/03 09:12:21;;;;;;;16.17;11.87;;;14.40;99.90;;;;;;4973629;28;20528;-95
2022/10/03 09:14:55;;;;;;;14.17;12.67;;;15.10;99.90;;;;;;4967661;28;20444;-96
2022/10/03 09:17:43;;;;;;;11.83;7.57;;;15.50;99.90;;;;;;4975972;28;20453;-96
